Beatty, Nevada Weather observations

Data are for observation ending at time listed.
 Day   Time    Ave.   Ave.  Ave.  Vector   Max.   Stn.    Total    Solar   Ave.  
  of    of     Air    Rel.  Wind   Wind    Wind   Baro.  Precip.   Rad.    Soil  
Year   Day     Temp.  Hum.  Speed  Dir.    Gust   Pres.                    Temp. 
2022   (PST)    F      %     mph   deg.    mph     mb.     in.     W/m2     F   
------------------------------------------------------------------------------
 226    5:00   69.3    56    3.2    15      7.6   902.1    0.00       0    83.5
 226    5:10   69.1    58    5.7     8      8.4   902.2    0.00       4    83.5
 226    5:20   69.0    58    4.7    10      7.7   902.3    0.00      10    83.4
 226    5:30   68.9    58    5.7     4      8.2   902.4    0.00      21    83.4
 226    5:40   69.5    57    4.0     6      6.2   902.5    0.00      26    83.4
 226    5:50   69.8    56    3.3     9      6.0   902.5    0.00      29    83.3
 226    6:00   70.6    55    3.4   359      7.4   902.6    0.00      40    83.3
 226    6:10   71.0    54    3.9   355      7.1   902.6    0.00      47    83.3
 226    6:20   71.0    55    5.1     7      7.0   902.6    0.00      45    83.2
 226    6:30   71.9    54    4.0     4      7.2   902.6    0.00      56    83.2
 226    6:40   72.7    52    3.4    24      8.7   902.7    0.00      41    83.2
 226    6:50   74.0    48    4.0    51      7.2   902.8    0.00      61    83.1
 226    7:00   75.9    45    3.1    62      6.9   902.8    0.00      93    83.1
 226    7:10   77.5    43    3.8    35      7.2   902.9    0.00     120    83.0
 226    7:20   78.9    42    3.1    55      6.1   902.9    0.00     153    83.0
 226    7:30   80.2    40    2.6    68      5.0   902.8    0.00     249    83.0
 226    7:40   80.7    39    2.3    59      4.0   902.7    0.00     348    83.0
 226    7:50   81.7    38    2.1    82      4.6   902.8    0.00     369    82.9
 226    8:00   83.0    36    1.6    83      4.2   902.7    0.00     396    82.9
 226    8:10   85.1    34    2.1    78      4.3   902.7    0.00     420    82.9
 226    8:20   86.0    33    1.7    63      4.1   902.7    0.00     442    82.9
 226    8:30   86.1    33    1.2   307      3.2   902.6    0.00     462    82.9
 226    8:40   87.9    30    2.2   124      4.7   902.6    0.00     489    82.8
 226    8:50   87.9    30    2.2   158      4.5   902.5    0.00     509    82.8
 226    9:00   88.6    29    1.4   226      4.6   902.4    0.00     531    82.7
 226    9:10   89.2    29    2.1   185      6.4   902.4    0.00     552    82.7
 226    9:20   88.8    29    3.0   185      7.1   902.4    0.00     571    82.7
 226    9:30   89.2    28    1.9    53      4.2   902.4    0.00     592    82.6
 226    9:40   89.9    27    3.0   209      7.8   902.3    0.00     609    82.6
 226    9:50   91.2    26    1.1     4      2.6   902.3    0.00     626    82.6
 226   10:00   92.6    24    1.8   183      5.5   902.2    0.00     640    82.6
 226   10:10   91.7    25    3.4   218      7.7   902.0    0.00     655    82.5
 226   10:20   91.0    25    4.5   211     10.7   902.0    0.00     668    82.6
 226   10:30   91.8    24    4.9   215      9.9   901.9    0.00     681    82.6
 226   10:40   92.3    24    5.0   217     13.0   901.8    0.00     692    82.6
 226   10:50   91.8    23    6.1   207     13.0   901.7    0.00     702    82.6
 226   11:00   92.3    22    5.5   200     11.8   901.6    0.00     711    82.6
 226   11:10   92.8    21    5.9   212     11.9   901.6    0.00     719    82.6
 226   11:20   93.2    21    6.1   198     12.5   901.4    0.00     724    82.7
 226   11:30   93.8    19    6.9   218     13.0   901.2    0.00     731    82.7
 226   11:40   93.3    19    6.9   216     13.5   901.2    0.00     734    82.8
 226   11:50   93.7    19    6.9   206     13.1   901.0    0.00     738    82.8
 226   12:00   93.5    19    4.9   216     11.6   900.9    0.00     739    82.8
 226   12:10   94.0    19    4.2   222      9.8   900.7    0.00     740    82.9
 226   12:20   94.5    18    6.7   197     10.9   900.7    0.00     740    83.0
 226   12:30   94.6    19    4.9   223     11.0   900.6    0.00     738    83.0
 226   12:40   94.4    18    3.7   210      9.3   900.4    0.00     734    83.1
 226   12:50   94.7    18    5.8   191     11.8   900.3    0.00     727    83.1
 226   13:00   95.4    17    4.2   209      9.4   900.2    0.00     722    83.2
 226   13:10   96.1    16    7.8   212     12.0   900.0    0.00     713    83.2
 226   13:20   95.6    16    3.3   228      9.1   900.0    0.00     704    83.3
 226   13:30   95.6    16    5.4   184     14.1   899.8    0.00     694    83.4
 226   13:40   95.7    16    5.5   184     10.8   899.6    0.00     682    83.5
 226   13:50   96.0    16    6.7   192     13.7   899.3    0.00     667    83.6
 226   14:00   96.2    16    4.2   219      9.9   899.2    0.00     655    83.7
 226   14:10   96.6    16    3.2   264      9.3   899.0    0.00     641    83.8
 226   14:20   96.9    16    4.4   252     12.5   898.8    0.00     623    83.8
 226   14:30   96.6    15    4.6   171      9.1   898.7    0.00     607    83.9
 226   14:40   97.4    15    7.3   206     13.6   898.7    0.00     588    84.0
 226   14:50   97.1    14    5.2   197      9.9   898.6    0.00     567    84.1
 226   15:00   97.3    14    4.4   173     14.5   898.4    0.00     548    84.1
 226   15:10   96.9    14    6.7   210     14.5   898.4    0.00     527    84.2
 226   15:20   96.9    14    6.6   218     14.0   898.4    0.00     506    84.3
 226   15:30   96.4    14    4.2   226      8.8   898.3    0.00     489    84.3
 226   15:40   96.5    14    5.2   216     13.2   898.3    0.00     480    84.4
 226   15:50   96.2    14    5.1   187     11.8   898.2    0.00     456    84.4
 226   16:00   96.5    14    3.4   195      9.4   898.2    0.00     422    84.5
 226   16:10   97.0    13    4.5   207     10.4   898.2    0.00     326    84.5
 226   16:20   96.9    13    4.5   187     10.2   898.1    0.00     123    84.6
 226   16:30   97.4    14    5.0   221      9.3   898.0    0.00     101    84.7
 226   16:40   97.8    14    4.4   217      8.3   898.0    0.00      99    84.7
 226   16:50   97.7    14    5.6   208     11.5   898.0    0.00     126    84.8
 226   17:00   97.8    14    4.8   223      8.8   897.9    0.00     247    84.8
 226   17:10   97.7    14    3.4   217      7.2   897.9    0.00     223    84.8
 226   17:20   98.1    14    3.4   208      7.3   897.8    0.00     170    84.9
 226   17:30   97.1    14    4.2   185      9.6   897.7    0.00     168    84.9
 226   17:40   96.3    15    3.0   187      8.6   897.7    0.00     142    84.9
 226   17:50   95.8    16    6.3   179     13.7   897.6    0.00     116    85.0
 226   18:00   95.2    16    5.7   174     10.7   897.7    0.00      90    85.0
 226   18:10   94.6    16    4.4   178      9.5   897.8    0.00      43    85.0
 226   18:20   93.5    18    6.3   168     19.0   897.8    0.00      13    85.1
 226   18:30   93.1    18    4.9   150     10.6   897.8    0.00       8    85.1
 226   18:40   92.7    18    5.6   128     12.6   897.9    0.00       4    85.1
 226   18:50   92.4    18    4.5   128      8.9   898.0    0.00       1    85.1
 226   19:00   92.1    19    4.2   108      8.3   898.0    0.00       0    85.1
 226   19:10   91.6    20    5.3   107      9.8   898.1    0.00       0    85.1
 226   19:20   91.4    21    5.5   105     10.7   898.3    0.00       0    85.0
 226   19:30   91.0    21    4.5   108     10.3   898.4    0.00       0    85.0
 226   19:40   91.0    21    4.4   101      9.9   898.5    0.00       0    85.0
 226   19:50   91.0    20    3.7   115      9.2   898.7    0.00       0    85.0
 226   20:00   91.0    20    3.2   122      8.1   898.8    0.00       0    85.0
 226   20:10   89.8    22    1.8   336      3.9   899.0    0.00       0    85.0
 226   20:20   87.4    25    1.8   309      3.0   899.1    0.00       0    85.0
 226   20:30   86.0    26    1.6   268      3.6   899.1    0.00       0    85.1
 226   20:40   85.7    26    0.8   144      2.3   899.2    0.00       0    85.1
 226   20:50   84.5    28    2.2   324      4.3   899.3    0.00       0    85.1
 226   21:00   83.8    28    1.7   332      4.3   899.3    0.00       0    85.1
 226   21:10   84.3    27    0.5     5      2.9   899.4    0.00       0    85.0
 226   21:20   83.3    30    0.6    24      1.6   899.5    0.00       0    85.0
 226   21:30   82.2    32    0.4    34      1.5   899.5    0.00       0    85.0
 226   21:40   80.9    34    0.5   319      1.8   899.5    0.00       0    85.0
 226   21:50   80.5    34    1.2    12      2.4   899.5    0.00       0    85.0
 226   22:00   80.3    35    0.5    19      2.0   899.5    0.00       0    85.1
 226   22:10   80.2    34    1.6    67      3.3   899.6    0.00       0    85.1
 226   22:20   81.1    32    1.4    46      2.9   899.8    0.00       0    85.1
 226   22:30   81.6    31    1.1    79      2.6   899.9    0.00       0    85.1
 226   22:40   82.3    32    1.1     9      3.0   900.0    0.00       0    85.1
 226   22:50   81.1    34    1.6    18      4.6   900.1    0.00       0    85.1
 226   23:00   81.1    33    0.9    39      3.1   900.1    0.00       0    85.1
 226   23:10   80.1    35    1.5    45      5.2   900.2    0.00       0    85.1
 226   23:20   82.6    30    2.7    60      6.6   900.3    0.00       0    85.1
 226   23:30   82.6    30    2.6    75      5.3   900.3    0.00       0    85.1
 226   23:40   83.7    29    3.3    93      6.4   900.2    0.00       0    85.1
 226   23:50   84.5    28    3.1    86      6.8   900.2    0.00       0    85.1
 227    0:00   83.7    30    1.5   227      3.8   900.3    0.00       0    85.1
 227    0:10   82.7    31    3.2   339      6.4   900.3    0.00       0    85.1
 227    0:20   83.1    31    4.1     6      7.0   900.3    0.00       0    85.2
 227    0:30   82.3    32    1.8    68      4.7   900.3    0.00       0    85.1
 227    0:40   81.3    34    1.7    25      3.8   900.3    0.00       0    85.1
 227    0:50   81.0    34    1.5    35      4.3   900.2    0.00       0    85.1
 227    1:00   81.5    34    1.0   261      2.4   900.1    0.00       0    85.1
 227    1:10   80.1    37    1.8    15      3.4   900.1    0.00       0    85.1
 227    1:20   80.3    37    1.3   223      2.5   900.1    0.00       0    85.1
 227    1:30   80.3    36    1.6   226      5.0   900.0    0.00       0    85.1
 227    1:40   80.0    38    0.8   106      2.8   900.0    0.00       0    85.1
 227    1:50   79.6    39    1.8    55      4.2   899.9    0.00       0    85.1
 227    2:00   79.0    41    1.7    11      2.9   899.9    0.00       0    85.1
 227    2:10   78.7    40    1.5   159      4.6   900.0    0.00       0    85.1
 227    2:20   78.7    39    2.6   152      7.6   900.0    0.00       0    85.1
 227    2:30   80.4    36    4.4   149      7.3   900.0    0.00       0    85.0
 227    2:40   80.0    38    4.8   160      8.8   900.1    0.00       0    85.0
 227    2:50   79.3    41    2.9   194      5.8   900.2    0.00       0    85.0
 227    3:00   78.8    43    2.4   170      4.7   900.2    0.00       0    85.0
 227    3:10   78.0    46    1.1   220      3.4   900.1    0.00       0    85.0
 227    3:20   76.9    48    0.2   191      1.2   900.0    0.00       0    85.0
 227    3:30   76.1    50    1.2   168      4.8   899.9    0.00       0    84.9
 227    3:40   75.5    53    1.5   178      4.7   900.0    0.00       0    84.9
 227    3:50   74.4    56    0.9   350      1.7   900.0    0.00       0    84.9
 227    4:00   73.1    58    1.3    39      2.2   900.1    0.00       0    84.8
 227    4:10   73.3    56    2.1    80      3.9   900.1    0.00       0    84.8
 227    4:20   73.0    56    2.3    56      4.6   900.2    0.00       0    84.8
 227    4:30   72.5    58    1.0    49      2.7   900.2    0.00       0    84.7
 227    4:40   72.1    58    1.2    15      2.6   900.2    0.00       0    84.7
 227    4:50   72.3    56    1.0    35      2.9   900.2    0.00       0    84.7

Return to Beatty, Nevada graphs page.


Western Regional Climate Center,wrcc@dri.edu